Time;durP1;ratioP1;P1;durP2;ratioP2;P2;SDS_P1;SDS_P2;PMS_P1;PMS_P2;Temp;Humidity;BMP_temperature;BMP_pressure;BME280_temperature;BME280_humidity;BME280_pressure;Samples;Min_cycle;Max_cycle;Signal;HPM_P1;HPM_P2
2023/05/27 00:00:39;;;;;;;16.33;4.73;;;17.20;59.20;;;;;;5064950;28;20496;-61
2023/05/27 00:03:18;;;;;;;13.13;4.23;;;17.20;59.30;;;;;;5063586;28;20465;-61
2023/05/27 00:05:49;;;;;;;14.50;4.70;;;17.20;59.30;;;;;;5065872;28;20480;-62
2023/05/27 00:08:31;;;;;;;14.07;4.90;;;17.10;59.40;;;;;;5091744;28;20500;-61
2023/05/27 00:11:05;;;;;;;15.97;5.03;;;17.10;59.40;;;;;;5060449;28;20604;-62
2023/05/27 00:13:45;;;;;;;12.93;4.50;;;17.00;59.40;;;;;;5064823;28;20453;-61
2023/05/27 00:16:21;;;;;;;15.93;5.20;;;16.90;59.50;;;;;;5064203;28;20468;-62
2023/05/27 00:18:55;;;;;;;15.10;4.27;;;16.80;59.60;;;;;;5059506;28;20457;-62
2023/05/27 00:21:31;;;;;;;14.87;4.23;;;16.80;59.70;;;;;;5063047;28;20473;-62
2023/05/27 00:24:03;;;;;;;14.50;4.13;;;16.70;59.80;;;;;;5067066;28;21054;-60
2023/05/27 00:26:41;;;;;;;13.00;4.33;;;16.70;60.00;;;;;;5065256;28;20556;-59
2023/05/27 00:29:11;;;;;;;14.63;4.50;;;16.60;60.00;;;;;;5064795;28;20539;-62
2023/05/27 00:31:53;;;;;;;11.87;4.23;;;16.50;60.10;;;;;;5062447;28;20489;-62
2023/05/27 00:34:23;;;;;;;16.47;4.77;;;16.50;60.20;;;;;;5089407;28;20471;-59
2023/05/27 00:37:08;;;;;;;15.03;5.17;;;16.40;60.20;;;;;;5067482;28;20909;-62
2023/05/27 00:39:42;;;;;;;15.70;4.53;;;16.40;60.30;;;;;;5063429;28;20457;-62
2023/05/27 00:42:12;;;;;;;11.27;4.10;;;16.30;60.30;;;;;;5062332;28;21133;-62
2023/05/27 00:44:44;;;;;;;10.73;4.30;;;16.30;60.40;;;;;;5062632;28;20472;-62
2023/05/27 00:47:19;;;;;;;12.70;4.20;;;16.20;60.40;;;;;;5057655;28;20540;-60
2023/05/27 00:49:51;;;;;;;18.37;4.53;;;16.20;60.40;;;;;;5086109;28;20475;-60
2023/05/27 00:52:24;;;;;;;15.67;4.63;;;16.10;60.40;;;;;;5066745;28;20457;-60
2023/05/27 00:54:59;;;;;;;15.00;4.30;;;16.00;60.50;;;;;;5065127;28;20455;-60
2023/05/27 00:57:31;;;;;;;15.10;5.40;;;16.00;60.50;;;;;;5063082;28;20458;-60
2023/05/27 01:00:06;;;;;;;9.43;3.80;;;16.00;60.60;;;;;;5065229;28;20465;-60
2023/05/27 01:02:45;;;;;;;13.17;4.03;;;16.00;60.50;;;;;;5063430;28;20481;-61
2023/05/27 01:05:21;;;;;;;16.13;4.13;;;16.10;60.50;;;;;;5066959;28;20857;-60
2023/05/27 01:08:14;;;;;;;11.90;4.23;;;16.10;60.50;;;;;;5091633;28;20539;-60
2023/05/27 01:10:57;;;;;;;13.73;4.20;;;16.20;60.50;;;;;;5063900;28;20508;-61
2023/05/27 01:13:44;;;;;;;11.20;4.10;;;16.20;60.50;;;;;;5065073;28;20472;-60
2023/05/27 01:16:19;;;;;;;11.87;4.10;;;16.10;60.50;;;;;;5057620;28;20778;-60
2023/05/27 01:19:07;;;;;;;11.53;3.90;;;16.10;60.50;;;;;;5062480;28;20465;-60
2023/05/27 01:21:44;;;;;;;12.47;4.70;;;16.10;60.50;;;;;;5061951;28;20575;-60
2023/05/27 01:24:24;;;;;;;16.43;4.60;;;16.00;60.50;;;;;;5065079;28;20461;-60
2023/05/27 01:27:05;;;;;;;13.63;4.17;;;16.00;60.60;;;;;;5062144;28;20461;-60
2023/05/27 01:29:38;;;;;;;13.77;4.13;;;16.00;60.70;;;;;;5066581;28;20551;-60
2023/05/27 01:32:22;;;;;;;13.93;4.07;;;16.00;60.70;;;;;;5062310;28;20511;-61
2023/05/27 01:35:00;;;;;;;10.33;4.20;;;15.90;60.70;;;;;;5064583;28;20455;-61
2023/05/27 01:37:38;;;;;;;12.10;3.90;;;15.80;60.70;;;;;;5063756;28;20982;-60
2023/05/27 01:40:25;;;;;;;12.90;4.33;;;15.80;60.80;;;;;;5064532;28;20468;-60
2023/05/27 01:43:10;;;;;;;15.37;4.40;;;15.80;60.90;;;;;;5063894;28;20583;-60
2023/05/27 01:45:44;;;;;;;12.70;4.07;;;15.80;60.90;;;;;;5064675;28;20463;-60
2023/05/27 01:48:14;;;;;;;14.10;4.40;;;15.80;61.00;;;;;;5063276;28;20475;-60
2023/05/27 01:51:00;;;;;;;13.97;4.73;;;15.70;61.00;;;;;;5065329;28;20509;-60
2023/05/27 01:53:40;;;;;;;12.30;4.07;;;15.70;61.00;;;;;;5063030;28;20460;-59
2023/05/27 01:56:27;;;;;;;17.53;4.50;;;15.70;61.00;;;;;;5063654;28;20471;-60
2023/05/27 01:59:00;;;;;;;14.60;4.27;;;15.70;61.10;;;;;;5063165;28;20555;-60
2023/05/27 02:01:38;;;;;;;13.27;4.93;;;15.70;61.10;;;;;;5084513;28;20600;-61
2023/05/27 02:04:11;;;;;;;9.80;4.00;;;15.70;61.10;;;;;;5081426;28;20486;-60
2023/05/27 02:09:31;;;;;;;14.90;4.07;;;15.60;61.10;;;;;;5089190;28;20472;-59
2023/05/27 02:12:14;;;;;;;17.60;4.07;;;15.60;61.10;;;;;;5063314;28;20496;-60
2023/05/27 02:14:56;;;;;;;14.90;4.27;;;15.60;61.20;;;;;;5065341;28;20940;-63
2023/05/27 02:17:29;;;;;;;14.67;4.27;;;15.50;61.20;;;;;;5062519;28;20527;-60
2023/05/27 02:20:03;;;;;;;9.07;3.90;;;15.50;61.20;;;;;;5064048;28;20473;-60
2023/05/27 02:22:46;;;;;;;11.77;4.47;;;15.50;61.30;;;;;;5064393;28;20472;-60
2023/05/27 02:25:23;;;;;;;13.70;4.30;;;15.50;61.30;;;;;;5066155;28;20454;-60
2023/05/27 02:28:03;;;;;;;11.47;4.13;;;15.40;61.20;;;;;;5059520;28;20547;-60
2023/05/27 02:30:35;;;;;;;15.63;4.43;;;15.40;61.20;;;;;;5062910;28;20491;-60
2023/05/27 02:33:04;;;;;;;17.07;4.67;;;15.40;61.20;;;;;;5064951;28;20446;-60
2023/05/27 02:35:40;;;;;;;13.23;4.50;;;15.40;61.30;;;;;;5064555;28;20888;-60
2023/05/27 02:38:21;;;;;;;12.53;4.40;;;15.30;61.30;;;;;;5084922;28;20484;-60
2023/05/27 02:40:51;;;;;;;12.40;4.20;;;15.30;61.40;;;;;;5056118;28;20806;-60
2023/05/27 02:43:37;;;;;;;12.33;3.87;;;15.30;61.40;;;;;;5059659;28;20591;-60
2023/05/27 02:46:16;;;;;;;10.00;4.10;;;15.20;61.40;;;;;;5063629;28;20470;-61
2023/05/27 02:48:47;;;;;;;13.13;4.60;;;15.10;61.40;;;;;;5068245;28;20451;-60
2023/05/27 02:51:28;;;;;;;17.67;4.83;;;15.00;61.30;;;;;;5068337;28;20461;-60
2023/05/27 02:54:04;;;;;;;12.73;4.23;;;14.90;61.40;;;;;;5069748;28;20959;-61
2023/05/27 02:56:35;;;;;;;14.40;4.40;;;14.80;61.50;;;;;;5063889;28;20518;-60
2023/05/27 02:59:20;;;;;;;9.03;4.27;;;14.70;61.70;;;;;;5069699;28;20506;-60
2023/05/27 03:01:53;;;;;;;12.00;4.10;;;14.60;62.00;;;;;;5057410;28;20489;-61
2023/05/27 03:04:23;;;;;;;14.20;4.67;;;14.60;62.10;;;;;;5052550;28;20522;-61
2023/05/27 03:07:01;;;;;;;18.33;4.03;;;14.50;62.10;;;;;;5063530;28;20748;-60
2023/05/27 03:09:35;;;;;;;16.80;4.33;;;14.50;62.20;;;;;;5067062;28;20457;-60
2023/05/27 03:12:11;;;;;;;11.73;3.77;;;14.50;62.30;;;;;;5065772;28;20951;-62
2023/05/27 03:14:50;;;;;;;10.67;4.03;;;14.40;62.30;;;;;;5065396;28;20488;-61
2023/05/27 03:17:25;;;;;;;10.07;4.03;;;14.40;62.40;;;;;;5065612;28;20522;-62
2023/05/27 03:19:57;;;;;;;9.93;4.07;;;14.40;62.50;;;;;;5066354;28;20907;-60
2023/05/27 03:22:33;;;;;;;12.37;4.30;;;14.40;62.50;;;;;;5066861;28;20481;-60
2023/05/27 03:25:11;;;;;;;17.93;4.20;;;14.40;62.60;;;;;;5067167;28;20555;-60
2023/05/27 03:27:42;;;;;;;14.23;4.00;;;14.30;62.60;;;;;;5065517;28;20466;-61
2023/05/27 03:30:30;;;;;;;12.47;4.27;;;14.30;62.60;;;;;;5066639;28;20562;-60
2023/05/27 03:33:03;;;;;;;12.70;4.90;;;14.30;62.60;;;;;;5063900;28;20480;-60
2023/05/27 03:35:47;;;;;;;10.70;4.47;;;14.20;62.60;;;;;;5067004;28;20459;-60
2023/05/27 03:38:16;;;;;;;10.90;3.77;;;14.20;62.70;;;;;;5065276;28;20460;-60
2023/05/27 03:40:55;;;;;;;11.53;4.40;;;14.10;62.80;;;;;;5064450;28;20991;-60
2023/05/27 03:43:39;;;;;;;15.47;4.50;;;14.10;62.90;;;;;;5065188;28;20488;-60
2023/05/27 03:46:15;;;;;;;13.90;5.00;;;14.20;62.90;;;;;;5062285;28;20952;-60
2023/05/27 03:48:52;;;;;;;11.97;4.80;;;14.20;63.00;;;;;;5067271;28;20516;-60
2023/05/27 03:51:24;;;;;;;13.70;3.83;;;14.20;63.00;;;;;;5063000;28;20474;-60
2023/05/27 03:54:02;;;;;;;11.73;4.93;;;14.10;63.00;;;;;;5086610;28;20465;-61
2023/05/27 03:56:42;;;;;;;11.50;4.10;;;14.10;63.00;;;;;;5064463;28;20465;-60
2023/05/27 03:59:17;;;;;;;14.50;4.00;;;14.10;63.00;;;;;;5064252;28;20469;-60
2023/05/27 04:01:54;;;;;;;10.90;4.90;;;14.20;63.10;;;;;;5065024;28;20485;-60
2023/05/27 04:04:25;;;;;;;12.53;4.43;;;14.20;63.20;;;;;;5066468;28;20468;-60
2023/05/27 04:06:59;;;;;;;11.77;4.13;;;14.20;63.20;;;;;;5073203;28;20611;-61
2023/05/27 04:09:32;;;;;;;11.10;4.40;;;14.20;63.30;;;;;;5065085;28;20457;-60
2023/05/27 04:12:05;;;;;;;13.20;4.57;;;14.20;63.30;;;;;;5062138;28;20457;-60
2023/05/27 04:14:47;;;;;;;13.03;4.47;;;14.30;63.40;;;;;;5066729;28;20565;-60
2023/05/27 04:17:34;;;;;;;8.53;3.80;;;14.30;63.40;;;;;;5063177;28;20463;-60
2023/05/27 04:20:11;;;;;;;11.90;4.83;;;14.30;63.40;;;;;;5066123;28;20479;-60
2023/05/27 04:22:57;;;;;;;11.17;4.53;;;14.30;63.40;;;;;;5064935;28;20543;-60
2023/05/27 04:25:32;;;;;;;20.10;5.13;;;14.30;63.40;;;;;;5089994;28;20948;-60
2023/05/27 04:28:15;;;;;;;13.03;4.20;;;14.40;63.50;;;;;;5066348;28;20464;-60
2023/05/27 04:31:13;;;;;;;13.67;4.67;;;14.40;63.50;;;;;;5065326;28;20485;-60
2023/05/27 04:33:54;;;;;;;16.20;4.70;;;14.50;63.60;;;;;;5062420;28;20465;-60
2023/05/27 04:36:32;;;;;;;11.70;3.73;;;14.50;63.60;;;;;;5067720;28;20863;-60
2023/05/27 04:39:05;;;;;;;10.83;4.47;;;14.60;63.60;;;;;;5065740;28;20862;-61
2023/05/27 04:41:56;;;;;;;13.53;4.60;;;14.70;63.70;;;;;;5064304;28;21150;-60
2023/05/27 04:44:35;;;;;;;11.70;4.63;;;14.80;63.70;;;;;;5062684;28;20480;-61
2023/05/27 04:47:10;;;;;;;13.77;4.50;;;14.90;63.80;;;;;;5067162;28;20465;-61
2023/05/27 04:49:47;;;;;;;12.30;4.43;;;14.90;63.70;;;;;;5081668;28;20477;-60
2023/05/27 04:52:21;;;;;;;16.47;4.50;;;15.00;63.60;;;;;;5066021;28;21114;-61
2023/05/27 04:54:57;;;;;;;17.60;4.00;;;15.10;63.60;;;;;;5068065;28;20461;-60
2023/05/27 04:57:41;;;;;;;10.30;4.03;;;15.20;63.70;;;;;;5064009;28;20478;-61
2023/05/27 05:00:36;;;;;;;15.97;4.57;;;15.40;63.70;;;;;;5064381;28;20462;-61
2023/05/27 05:03:10;;;;;;;10.67;3.70;;;15.50;63.70;;;;;;5063896;28;20503;-61
2023/05/27 05:06:03;;;;;;;10.67;4.13;;;15.60;63.70;;;;;;5063589;28;20469;-60
2023/05/27 05:08:35;;;;;;;14.43;4.20;;;15.70;63.90;;;;;;5090880;28;20458;-60
2023/05/27 05:11:19;;;;;;;14.00;4.53;;;15.80;63.90;;;;;;5089304;28;20821;-60
2023/05/27 05:16:37;;;;;;;13.20;4.67;;;16.10;63.90;;;;;;5065305;28;20461;-61
2023/05/27 05:19:26;;;;;;;14.13;4.17;;;16.30;63.80;;;;;;5064823;28;20547;-61
2023/05/27 05:22:04;;;;;;;15.70;3.70;;;16.50;63.80;;;;;;5063570;28;20460;-61
2023/05/27 05:24:38;;;;;;;12.93;5.00;;;16.70;64.00;;;;;;5064441;28;20542;-63
2023/05/27 05:27:10;;;;;;;21.40;4.40;;;17.00;64.30;;;;;;5086490;28;20453;-62
2023/05/27 05:29:42;;;;;;;13.33;4.13;;;17.40;63.90;;;;;;5063250;28;20465;-61
2023/05/27 05:32:22;;;;;;;13.23;3.83;;;18.10;62.70;;;;;;5059638;28;20466;-61
2023/05/27 05:34:53;;;;;;;15.00;4.10;;;18.80;61.20;;;;;;5064684;28;21156;-61
2023/05/27 05:37:45;;;;;;;10.43;3.83;;;19.50;59.70;;;;;;5081643;28;20502;-61
2023/05/27 05:40:18;;;;;;;14.30;3.73;;;20.10;58.40;;;;;;5063749;28;20776;-62
2023/05/27 05:43:08;;;;;;;12.80;3.97;;;20.70;58.00;;;;;;5062246;28;20489;-61
2023/05/27 05:45:42;;;;;;;16.97;4.33;;;21.20;57.40;;;;;;5063672;28;21065;-64
2023/05/27 05:48:19;;;;;;;14.10;4.90;;;21.70;56.50;;;;;;5064332;28;20457;-60
2023/05/27 05:50:50;;;;;;;15.07;3.60;;;22.20;56.20;;;;;;5061426;28;21053;-60
2023/05/27 05:53:32;;;;;;;13.43;3.90;;;22.70;55.50;;;;;;5065614;28;20549;-60
2023/05/27 05:56:06;;;;;;;10.03;3.90;;;23.20;54.90;;;;;;5059798;28;20523;-60
2023/05/27 05:58:36;;;;;;;11.90;4.07;;;23.80;54.30;;;;;;5065628;28;20946;-60
2023/05/27 06:01:11;;;;;;;14.70;4.00;;;24.30;53.70;;;;;;5064239;28;20473;-60
2023/05/27 06:03:44;;;;;;;14.83;4.50;;;24.70;52.70;;;;;;5063782;28;20484;-59
2023/05/27 06:06:43;;;;;;;13.37;3.80;;;25.00;51.90;;;;;;5057881;28;20950;-60
2023/05/27 06:09:33;;;;;;;13.47;4.40;;;25.40;50.80;;;;;;5065409;28;20528;-60
2023/05/27 06:12:08;;;;;;;14.40;4.33;;;25.30;49.90;;;;;;5064648;28;20504;-60
2023/05/27 06:14:56;;;;;;;12.13;4.43;;;24.90;49.60;;;;;;5060422;28;20454;-60
2023/05/27 06:17:47;;;;;;;18.40;4.13;;;24.30;49.70;;;;;;5065180;28;20466;-60
2023/05/27 06:20:22;;;;;;;13.80;4.80;;;23.50;50.10;;;;;;5063738;28;21191;-60
2023/05/27 06:22:58;;;;;;;16.20;4.20;;;23.00;50.30;;;;;;5069031;28;20964;-60
2023/05/27 06:26:03;;;;;;;18.23;4.63;;;22.30;50.40;;;;;;5066825;28;20496;-60
2023/05/27 06:28:41;;;;;;;13.80;4.33;;;21.40;50.70;;;;;;5069758;28;20465;-59
2023/05/27 06:31:16;;;;;;;16.97;4.40;;;20.60;51.50;;;;;;5061502;28;20481;-60
2023/05/27 06:33:52;;;;;;;17.50;4.50;;;20.00;52.10;;;;;;5065182;28;20460;-60
2023/05/27 06:36:26;;;;;;;12.93;4.20;;;19.50;52.80;;;;;;5070142;28;20865;-60
2023/05/27 06:39:00;;;;;;;24.00;6.27;;;19.10;53.30;;;;;;5064114;28;20465;-60
2023/05/27 06:41:39;;;;;;;12.80;4.60;;;18.80;53.70;;;;;;5068987;28;20487;-59
2023/05/27 06:44:28;;;;;;;18.03;4.67;;;18.60;54.10;;;;;;5068231;28;20980;-61
2023/05/27 06:47:05;;;;;;;17.70;4.00;;;18.40;54.40;;;;;;5064960;28;20955;-61
2023/05/27 06:49:43;;;;;;;18.23;5.30;;;18.30;54.80;;;;;;5062154;28;20476;-61
2023/05/27 06:52:22;;;;;;;17.20;5.23;;;18.20;55.00;;;;;;5069008;28;20483;-61
2023/05/27 06:55:32;;;;;;;13.33;3.50;;;18.00;55.60;;;;;;5055883;28;20462;-60
2023/05/27 06:58:26;;;;;;;22.23;5.10;;;18.00;55.70;;;;;;5066464;28;21287;-61
2023/05/27 07:01:13;;;;;;;16.50;4.47;;;18.00;56.00;;;;;;5066440;28;20484;-61
2023/05/27 07:04:04;;;;;;;20.90;5.60;;;18.00;56.00;;;;;;5067307;28;20509;-61
2023/05/27 07:06:45;;;;;;;14.43;4.20;;;18.00;56.20;;;;;;5068377;28;20486;-60
2023/05/27 07:09:29;;;;;;;14.77;4.00;;;17.90;56.20;;;;;;5063625;28;20558;-60
2023/05/27 07:12:10;;;;;;;15.40;4.50;;;17.90;56.20;;;;;;5066096;28;20483;-60
2023/05/27 07:15:08;;;;;;;10.60;3.57;;;17.90;56.40;;;;;;5069475;28;20786;-61
2023/05/27 07:17:40;;;;;;;9.43;3.77;;;17.90;56.50;;;;;;5066276;28;20557;-60
2023/05/27 07:20:13;;;;;;;12.40;3.77;;;17.90;56.50;;;;;;5069197;28;20920;-60
2023/05/27 07:22:52;;;;;;;12.13;3.93;;;17.90;56.60;;;;;;5059690;28;20478;-60
2023/05/27 07:25:26;;;;;;;11.17;4.10;;;17.90;56.60;;;;;;5069230;28;20512;-60
2023/05/27 07:28:05;;;;;;;13.23;4.30;;;17.90;56.60;;;;;;5086119;28;20517;-61
2023/05/27 07:30:43;;;;;;;19.57;4.87;;;17.90;56.70;;;;;;5065062;28;20478;-60
2023/05/27 07:33:17;;;;;;;14.97;4.03;;;18.00;56.80;;;;;;5067482;28;20461;-61
2023/05/27 07:35:55;;;;;;;18.73;4.70;;;18.00;56.90;;;;;;5060697;28;20449;-60
2023/05/27 07:38:28;;;;;;;17.90;4.10;;;18.10;56.80;;;;;;5060871;28;20459;-61
2023/05/27 07:41:04;;;;;;;12.03;4.10;;;18.10;56.80;;;;;;5069390;28;20463;-60
2023/05/27 07:43:34;;;;;;;13.50;4.77;;;18.10;56.90;;;;;;5067846;28;20451;-61
2023/05/27 07:46:19;;;;;;;14.40;4.10;;;18.20;57.00;;;;;;5069418;28;21022;-61
2023/05/27 07:48:54;;;;;;;15.80;5.10;;;18.20;57.00;;;;;;5068149;28;20489;-60
2023/05/27 07:51:35;;;;;;;15.97;5.00;;;18.20;57.00;;;;;;5066745;28;20464;-60
2023/05/27 07:54:09;;;;;;;12.33;3.93;;;18.20;57.10;;;;;;5082499;28;20456;-60
2023/05/27 07:56:43;;;;;;;24.60;12.47;;;18.30;57.20;;;;;;5067100;28;20463;-61
2023/05/27 07:59:19;;;;;;;18.63;4.90;;;18.30;57.10;;;;;;5066132;28;20535;-60
2023/05/27 08:02:06;;;;;;;22.77;5.53;;;18.40;57.10;;;;;;5063263;28;20572;-60
2023/05/27 08:04:39;;;;;;;14.57;5.03;;;18.40;57.00;;;;;;5082546;28;20474;-60
2023/05/27 08:07:40;;;;;;;18.83;5.60;;;18.30;57.20;;;;;;5064077;28;20470;-61
2023/05/27 08:10:21;;;;;;;12.77;4.60;;;18.40;57.30;;;;;;5064945;28;20465;-61
2023/05/27 08:13:24;;;;;;;20.33;5.37;;;18.50;57.40;;;;;;5062015;28;20453;-61
2023/05/27 08:16:12;;;;;;;16.43;5.37;;;18.50;57.30;;;;;;5064114;28;20455;-62
2023/05/27 08:18:50;;;;;;;15.53;5.43;;;18.60;57.30;;;;;;5064225;28;20541;-61
2023/05/27 08:21:46;;;;;;;15.37;6.43;;;18.60;57.30;;;;;;5062679;28;20518;-61
2023/05/27 08:24:42;;;;;;;13.33;3.60;;;18.70;57.30;;;;;;5038140;28;20484;-61
2023/05/27 08:27:49;;;;;;;36.27;18.07;;;18.70;57.20;;;;;;5037307;28;20468;-61
2023/05/27 08:30:41;;;;;;;15.17;5.20;;;18.70;56.90;;;;;;5065312;28;20465;-60
2023/05/27 08:33:24;;;;;;;18.93;4.37;;;18.80;56.90;;;;;;5064915;28;20462;-60
2023/05/27 08:36:02;;;;;;;13.27;4.00;;;18.80;56.90;;;;;;5058845;28;21287;-61
2023/05/27 08:38:33;;;;;;;18.50;4.73;;;18.90;56.80;;;;;;5064197;28;20496;-60
2023/05/27 08:41:18;;;;;;;17.37;5.37;;;18.90;56.80;;;;;;5021240;28;20807;-61
2023/05/27 08:43:48;;;;;;;25.80;5.13;;;19.00;56.60;;;;;;5065954;28;20502;-60
2023/05/27 08:46:46;;;;;;;17.97;4.50;;;19.00;56.50;;;;;;5087850;28;22036;-60
2023/05/27 08:49:23;;;;;;;12.97;4.27;;;19.00;56.50;;;;;;5066747;28;20459;-60
2023/05/27 08:52:19;;;;;;;16.43;4.33;;;19.10;56.40;;;;;;5065359;28;20766;-60
2023/05/27 08:54:59;;;;;;;18.57;4.80;;;19.10;56.40;;;;;;5066023;28;20568;-60
2023/05/27 08:57:43;;;;;;;15.47;4.60;;;19.10;56.40;;;;;;5065645;28;20475;-60
2023/05/27 09:00:23;;;;;;;13.37;4.27;;;19.10;56.40;;;;;;5065548;28;20555;-60
2023/05/27 09:03:02;;;;;;;12.67;4.03;;;19.10;56.20;;;;;;5060673;28;20622;-61
2023/05/27 09:05:38;;;;;;;12.00;4.50;;;19.20;56.10;;;;;;5067423;28;20465;-60
2023/05/27 09:08:25;;;;;;;14.47;4.53;;;19.20;56.20;;;;;;5065734;28;20467;-60
2023/05/27 09:11:34;;;;;;;13.03;4.23;;;19.30;56.20;;;;;;5065626;28;21297;-61
2023/05/27 09:14:11;;;;;;;21.43;4.77;;;19.30;56.00;;;;;;5064297;28;20496;-60
2023/05/27 09:16:46;;;;;;;15.00;4.53;;;19.40;56.00;;;;;;5062164;28;20462;-61
2023/05/27 09:19:26;;;;;;;12.70;4.27;;;19.50;56.00;;;;;;5064315;28;20559;-61
2023/05/27 09:22:06;;;;;;;16.00;4.47;;;19.50;55.90;;;;;;5065600;28;20453;-61
2023/05/27 09:24:44;;;;;;;13.80;5.03;;;19.50;56.00;;;;;;5066140;28;20564;-62
2023/05/27 09:27:22;;;;;;;11.00;4.10;;;19.60;55.90;;;;;;5066559;28;20475;-61
2023/05/27 09:29:56;;;;;;;15.57;5.20;;;19.60;56.00;;;;;;5066227;28;20495;-61
2023/05/27 09:32:31;;;;;;;16.13;4.20;;;19.70;56.00;;;;;;5065473;28;20878;-61
2023/05/27 09:35:07;;;;;;;15.33;4.10;;;19.70;55.80;;;;;;5064120;28;20449;-62
2023/05/27 09:37:38;;;;;;;10.40;4.23;;;19.80;55.80;;;;;;5063360;28;20460;-61
2023/05/27 09:40:24;;;;;;;16.00;5.33;;;19.80;55.90;;;;;;5064720;28;20795;-61
2023/05/27 09:42:59;;;;;;;11.23;4.30;;;20.00;55.60;;;;;;5065733;28;20453;-61
2023/05/27 09:45:33;;;;;;;14.20;4.73;;;20.00;55.70;;;;;;5066482;28;20569;-62
2023/05/27 09:48:08;;;;;;;14.53;4.43;;;20.00;55.80;;;;;;5067815;28;20531;-62
2023/05/27 09:50:53;;;;;;;12.40;3.40;;;20.00;55.70;;;;;;5066600;28;20450;-62
2023/05/27 09:53:34;;;;;;;14.30;5.27;;;20.10;55.70;;;;;;5065355;28;20472;-62
2023/05/27 09:56:26;;;;;;;15.87;4.77;;;20.20;55.60;;;;;;5071417;28;20518;-62
2023/05/27 09:58:58;;;;;;;15.40;4.90;;;20.20;55.10;;;;;;5074318;28;20985;-62
2023/05/27 10:01:30;;;;;;;19.70;4.90;;;20.20;55.20;;;;;;5072301;28;20569;-60
2023/05/27 10:04:13;;;;;;;14.37;4.73;;;20.30;55.20;;;;;;5073856;28;20456;-60
2023/05/27 10:06:43;;;;;;;14.23;4.43;;;20.30;55.10;;;;;;5073183;28;20575;-60
2023/05/27 10:09:15;;;;;;;15.93;4.33;;;20.40;55.10;;;;;;5074103;28;20483;-60
2023/05/27 10:11:54;;;;;;;17.33;4.63;;;20.40;55.30;;;;;;5072805;28;20760;-60
2023/05/27 10:14:30;;;;;;;12.33;4.70;;;20.50;55.10;;;;;;5058075;28;20477;-60
2023/05/27 10:17:03;;;;;;;13.33;5.33;;;20.60;55.00;;;;;;5065618;28;20536;-60
2023/05/27 10:19:37;;;;;;;10.43;5.00;;;20.60;54.90;;;;;;5061174;28;21132;-61
2023/05/27 10:22:21;;;;;;;16.23;3.70;;;20.60;54.90;;;;;;5069013;28;20449;-60
2023/05/27 10:25:00;;;;;;;17.03;4.17;;;20.60;54.50;;;;;;5067826;28;20465;-60
2023/05/27 10:27:46;;;;;;;15.97;4.43;;;20.60;54.60;;;;;;5069503;28;20468;-60
2023/05/27 10:30:22;;;;;;;14.70;4.57;;;20.70;54.30;;;;;;5069498;28;20544;-61
2023/05/27 10:33:02;;;;;;;12.07;4.30;;;20.80;54.10;;;;;;5069404;28;20465;-60
2023/05/27 10:35:45;;;;;;;13.30;4.40;;;20.80;53.80;;;;;;5070512;28;20449;-60
2023/05/27 10:38:24;;;;;;;9.10;3.87;;;20.90;53.60;;;;;;5068568;28;20467;-60
2023/05/27 10:41:05;;;;;;;20.30;6.03;;;20.90;53.70;;;;;;5069261;28;20506;-61
2023/05/27 10:43:43;;;;;;;13.40;4.10;;;21.00;53.50;;;;;;5069001;28;20456;-60
2023/05/27 10:46:17;;;;;;;18.10;5.40;;;21.00;53.10;;;;;;5071841;28;20952;-60
2023/05/27 10:49:01;;;;;;;14.53;4.17;;;21.00;53.00;;;;;;5070658;28;20510;-59
2023/05/27 10:51:34;;;;;;;11.13;4.77;;;21.00;52.90;;;;;;5069576;28;20977;-60
2023/05/27 10:54:08;;;;;;;13.03;4.60;;;21.10;52.90;;;;;;5070918;28;20484;-61
2023/05/27 10:56:58;;;;;;;16.20;4.30;;;21.10;52.90;;;;;;5029627;28;20475;-60
2023/05/27 10:59:50;;;;;;;15.23;3.70;;;21.00;52.90;;;;;;4995551;28;20537;-61
2023/05/27 11:02:32;;;;;;;12.73;4.00;;;21.10;52.80;;;;;;5027937;28;21108;-60
2023/05/27 11:05:24;;;;;;;18.80;4.80;;;21.10;52.90;;;;;;5029899;28;20916;-60
2023/05/27 11:08:08;;;;;;;13.23;3.97;;;21.20;52.80;;;;;;5027442;28;20475;-60
2023/05/27 11:10:42;;;;;;;22.13;5.37;;;21.20;52.60;;;;;;5027254;28;20447;-60
2023/05/27 11:13:21;;;;;;;14.93;4.03;;;21.30;52.60;;;;;;5027432;28;20474;-60
2023/05/27 11:15:56;;;;;;;19.47;4.77;;;21.30;52.60;;;;;;5058263;28;20469;-61
2023/05/27 11:18:37;;;;;;;14.00;4.70;;;21.30;52.50;;;;;;5066369;28;20708;-62
2023/05/27 11:21:17;;;;;;;13.43;4.60;;;21.30;52.40;;;;;;5068972;28;20449;-60
2023/05/27 11:23:48;;;;;;;10.43;3.97;;;21.40;52.00;;;;;;5064356;28;20504;-60
2023/05/27 11:26:26;;;;;;;15.63;4.40;;;21.50;51.80;;;;;;5068413;28;20492;-60
2023/05/27 11:29:08;;;;;;;13.17;5.40;;;21.60;51.80;;;;;;5067681;28;20453;-63
2023/05/27 11:31:45;;;;;;;21.83;5.73;;;21.60;51.70;;;;;;5065822;28;20812;-62
2023/05/27 11:34:27;;;;;;;12.83;3.67;;;21.70;51.60;;;;;;5067312;28;20952;-62
2023/05/27 11:37:05;;;;;;;36.93;9.20;;;21.70;51.40;;;;;;5061527;28;20457;-62
2023/05/27 11:39:36;;;;;;;15.23;4.50;;;21.70;51.10;;;;;;5061022;28;20496;-62
2023/05/27 11:42:09;;;;;;;13.53;4.10;;;21.70;50.90;;;;;;5066172;28;20480;-61
2023/05/27 11:44:50;;;;;;;17.93;5.80;;;21.70;50.70;;;;;;5063634;28;20946;-61
2023/05/27 11:47:26;;;;;;;16.43;4.17;;;21.70;50.60;;;;;;5066723;28;21186;-63
2023/05/27 11:50:05;;;;;;;40.70;10.90;;;21.80;50.70;;;;;;5064804;28;20454;-64
2023/05/27 11:52:38;;;;;;;11.60;4.23;;;21.80;50.60;;;;;;5058930;28;20491;-60
2023/05/27 11:55:19;;;;;;;17.80;4.93;;;21.80;50.60;;;;;;5066133;28;20464;-59
2023/05/27 11:57:57;;;;;;;9.37;3.57;;;21.80;50.50;;;;;;5062184;28;20457;-62
2023/05/27 12:00:31;;;;;;;12.70;4.03;;;21.80;50.30;;;;;;5061242;28;20485;-63
2023/05/27 12:03:08;;;;;;;11.90;4.20;;;21.90;50.00;;;;;;5063013;28;20627;-62
2023/05/27 12:05:45;;;;;;;41.27;11.43;;;22.00;49.90;;;;;;5065712;28;20488;-62
2023/05/27 12:08:18;;;;;;;62.70;12.90;;;22.10;49.80;;;;;;5063850;28;20535;-61
2023/05/27 12:10:58;;;;;;;12.13;3.43;;;22.10;49.80;;;;;;5064138;28;21001;-61
2023/05/27 12:13:31;;;;;;;11.30;3.67;;;22.10;49.50;;;;;;5065045;28;20461;-60
2023/05/27 12:16:06;;;;;;;11.17;3.50;;;22.20;49.20;;;;;;5066399;28;20491;-60
2023/05/27 12:18:45;;;;;;;16.40;5.30;;;22.20;48.90;;;;;;5060507;28;20556;-60
2023/05/27 12:21:21;;;;;;;11.23;4.20;;;22.20;48.70;;;;;;5058598;28;20478;-60
2023/05/27 12:23:51;;;;;;;11.53;3.50;;;22.20;48.80;;;;;;5059559;28;20516;-63
2023/05/27 12:26:24;;;;;;;13.70;4.00;;;22.20;48.60;;;;;;5058035;28;20458;-60
2023/05/27 12:29:01;;;;;;;15.40;4.53;;;22.20;48.80;;;;;;5062065;28;20472;-59
2023/05/27 12:31:33;;;;;;;20.87;5.40;;;22.20;48.70;;;;;;5056817;28;20572;-59
2023/05/27 12:34:23;;;;;;;11.90;4.20;;;22.30;48.70;;;;;;5059971;28;20473;-59
2023/05/27 12:37:03;;;;;;;15.33;4.70;;;22.30;48.50;;;;;;5059179;28;20472;-61
2023/05/27 12:39:36;;;;;;;24.00;4.60;;;22.30;48.30;;;;;;5057949;28;21041;-61
2023/05/27 12:42:09;;;;;;;28.37;8.63;;;22.40;48.30;;;;;;5061384;28;20473;-61
2023/05/27 12:44:41;;;;;;;18.03;4.57;;;22.40;48.30;;;;;;5080479;28;20465;-62
2023/05/27 12:47:17;;;;;;;9.43;4.00;;;22.50;48.30;;;;;;5065148;28;20900;-62
2023/05/27 12:49:53;;;;;;;11.97;3.90;;;22.50;48.30;;;;;;5056921;28;20449;-64
2023/05/27 12:52:26;;;;;;;11.70;4.00;;;22.50;48.40;;;;;;5061435;28;20827;-62
2023/05/27 12:55:00;;;;;;;14.20;4.70;;;22.50;48.50;;;;;;5061181;28;20838;-63
2023/05/27 12:57:33;;;;;;;13.27;4.47;;;22.60;48.50;;;;;;5062428;28;21254;-61
2023/05/27 13:00:01;;;;;;;13.80;3.90;;;22.60;48.50;;;;;;5062387;28;20548;-60
2023/05/27 13:02:38;;;;;;;12.60;4.57;;;22.70;48.30;;;;;;5060183;28;20473;-60
2023/05/27 13:05:15;;;;;;;12.13;3.90;;;22.70;48.30;;;;;;5063089;28;20474;-61
2023/05/27 13:07:59;;;;;;;17.63;4.57;;;22.70;48.30;;;;;;5062083;28;20477;-61
2023/05/27 13:10:32;;;;;;;17.60;4.53;;;22.70;48.10;;;;;;5057976;28;20462;-60
2023/05/27 13:13:05;;;;;;;10.97;4.60;;;22.70;48.00;;;;;;5059655;28;20465;-60
2023/05/27 13:15:53;;;;;;;24.33;6.50;;;22.60;48.00;;;;;;5062790;28;20453;-60
2023/05/27 13:18:26;;;;;;;38.60;9.37;;;22.60;48.00;;;;;;5063247;28;20564;-61
2023/05/27 13:20:58;;;;;;;20.37;7.17;;;22.70;48.00;;;;;;5058250;28;20473;-60
2023/05/27 13:23:33;;;;;;;10.07;3.47;;;22.70;48.00;;;;;;5060582;28;20846;-60
2023/05/27 13:26:06;;;;;;;11.70;4.17;;;22.80;48.10;;;;;;5058070;28;20474;-61
2023/05/27 13:28:36;;;;;;;9.47;3.57;;;22.80;48.10;;;;;;5058319;28;20481;-61
2023/05/27 13:31:16;;;;;;;11.37;4.53;;;22.80;48.00;;;;;;5059981;28;20600;-61
2023/05/27 13:33:48;;;;;;;9.70;4.10;;;22.90;47.80;;;;;;5057824;28;20503;-59
2023/05/27 13:36:26;;;;;;;8.87;3.23;;;22.90;47.60;;;;;;5057777;28;20465;-59
2023/05/27 13:39:05;;;;;;;14.10;4.17;;;23.00;47.60;;;;;;5059986;28;20507;-59
2023/05/27 13:41:39;;;;;;;15.90;4.80;;;22.90;47.70;;;;;;5061660;28;20464;-59